NK19 weather

Potoczak Airport
Clarence Center, New York, United States

Public forecast

Using degrees Fahrenheit for public forecast. Weather courtesy of forecast.io.

Closest aviation weather report (METAR) to Potoczak Airport

Closest report is Buffalo Niagara International Airport, 7.9 nm (14.6 km) SSW. Retrieved 2020/06/02 14:54 UTC (32 minutes ago):

KBUF 021454Z 21013KT 10SM OVC046 16/09 A2993 RMK AO2 SLP137 T01560094 58021

Closest aviation forecast (TAF) to Potoczak Airport

Closest forecast is Buffalo Niagara International Airport, 7.9 nm (14.6 km) SSW. Retrieved 2020/06/02 12:22 UTC (3 hours ago):

TAF KBUF 021120Z 0212/0312 24009KT P6SM VCSH OVC070 FM021400 21009KT P6SM BKN040 FM021900 23013G20KT P6SM SCT035 FM030300 23010KT 6SM BR VCSH BKN035 FM030800 25009KT P6SM BKN060